Time;durP1;ratioP1;P1;durP2;ratioP2;P2;SDS_P1;SDS_P2;PMS_P1;PMS_P2;Temp;Humidity;BMP_temperature;BMP_pressure;BME280_temperature;BME280_humidity;BME280_pressure;Samples;Min_cycle;Max_cycle;Signal;HPM_P1;HPM_P2
2021/05/29 00:00:42;;;;;;;;;;;;;;;27.33;38.19;100349.28;5055891;28;780;-29
2021/05/29 00:03:07;;;;;;;;;;;;;;;27.35;38.10;100345.38;5055404;28;948;-29
2021/05/29 00:05:33;;;;;;;;;;;;;;;27.30;38.18;100338.84;5055973;28;792;-29
2021/05/29 00:07:58;;;;;;;;;;;;;;;27.31;38.11;100337.84;5055481;28;836;-29
2021/05/29 00:10:23;;;;;;;;;;;;;;;27.34;38.24;100338.28;5055311;28;566;-28
2021/05/29 00:12:48;;;;;;;;;;;;;;;27.33;38.33;100328.50;5055668;28;1901;-29
2021/05/29 00:15:14;;;;;;;;;;;;;;;27.38;38.14;100336.03;5055667;28;760;-29
2021/05/29 00:17:39;;;;;;;;;;;;;;;27.34;38.46;100326.66;5054798;28;1006;-29
2021/05/29 00:20:04;;;;;;;;;;;;;;;27.34;38.11;100323.94;5055936;28;816;-29
2021/05/29 00:22:30;;;;;;;;;;;;;;;27.42;38.11;100328.38;5055812;28;740;-29
2021/05/29 00:24:55;;;;;;;;;;;;;;;27.33;38.22;100323.09;5055247;28;895;-29
2021/05/29 00:27:20;;;;;;;;;;;;;;;27.32;38.35;100329.56;5059828;28;763;-29
2021/05/29 00:29:46;;;;;;;;;;;;;;;27.33;37.99;100320.41;5059276;28;871;-29
2021/05/29 00:32:11;;;;;;;;;;;;;;;27.38;38.00;100328.75;5058705;28;987;-29
2021/05/29 00:34:36;;;;;;;;;;;;;;;27.34;38.37;100322.06;5059293;28;1965;-29
2021/05/29 00:37:01;;;;;;;;;;;;;;;27.41;38.14;100324.00;5059013;28;584;-29
2021/05/29 00:39:27;;;;;;;;;;;;;;;27.34;37.98;100321.25;5059378;28;807;-29
2021/05/29 00:41:52;;;;;;;;;;;;;;;27.34;37.75;100322.06;5059540;28;811;-29
2021/05/29 00:44:17;;;;;;;;;;;;;;;27.35;38.06;100323.75;5059013;28;744;-29
2021/05/29 00:46:43;;;;;;;;;;;;;;;27.32;38.05;100321.44;5058718;28;940;-29
2021/05/29 00:49:08;;;;;;;;;;;;;;;27.33;37.89;100317.72;5059127;28;756;-29
2021/05/29 00:51:33;;;;;;;;;;;;;;;27.31;38.09;100314.34;5059003;28;763;-28
2021/05/29 00:53:58;;;;;;;;;;;;;;;27.27;37.75;100313.09;5058680;28;1968;-28
2021/05/29 00:56:24;;;;;;;;;;;;;;;27.26;38.07;100319.50;5058459;28;840;-29
2021/05/29 00:58:49;;;;;;;;;;;;;;;27.29;38.28;100321.84;5058876;28;775;-28
2021/05/29 01:01:14;;;;;;;;;;;;;;;27.23;38.09;100326.16;5058648;28;787;-28
2021/05/29 01:03:40;;;;;;;;;;;;;;;27.26;38.18;100317.66;5058537;28;936;-28
2021/05/29 01:06:06;;;;;;;;;;;;;;;27.25;38.00;100318.69;5058308;28;820;-28
2021/05/29 01:08:31;;;;;;;;;;;;;;;27.26;38.16;100322.19;5058396;28;814;-28
2021/05/29 01:10:56;;;;;;;;;;;;;;;27.28;38.28;100312.06;5058631;28;767;-28
2021/05/29 01:13:27;;;;;;;;;;;;;;;27.24;38.23;100308.91;5058072;28;1981;-28
2021/05/29 01:15:55;;;;;;;;;;;;;;;27.23;38.11;100306.41;5058237;28;811;-29
2021/05/29 01:18:21;;;;;;;;;;;;;;;27.29;37.82;100305.63;5057819;28;1030;-29
2021/05/29 01:20:46;;;;;;;;;;;;;;;27.25;38.20;100309.75;5058506;28;804;-29
2021/05/29 01:23:12;;;;;;;;;;;;;;;27.26;38.40;100314.94;5058275;28;803;-29
2021/05/29 01:25:39;;;;;;;;;;;;;;;27.29;38.34;100316.44;5058114;28;796;-29
2021/05/29 01:28:18;;;;;;;;;;;;;;;27.24;38.01;100316.19;5058709;28;810;-29
2021/05/29 01:30:47;;;;;;;;;;;;;;;27.21;38.24;100308.47;5058281;28;772;-29
2021/05/29 01:33:16;;;;;;;;;;;;;;;27.24;38.19;100306.19;5057826;28;1902;-29
2021/05/29 01:35:42;;;;;;;;;;;;;;;27.25;38.18;100313.28;5058216;28;787;-29
2021/05/29 01:38:07;;;;;;;;;;;;;;;27.29;37.97;100313.75;5056966;28;760;-29
2021/05/29 01:40:32;;;;;;;;;;;;;;;27.25;38.16;100315.16;5058055;28;784;-29
2021/05/29 01:42:58;;;;;;;;;;;;;;;27.23;38.23;100304.53;5058097;28;831;-29
2021/05/29 01:45:26;;;;;;;;;;;;;;;27.20;38.40;100304.94;5057260;28;810;-29
2021/05/29 01:47:51;;;;;;;;;;;;;;;27.24;38.15;100308.09;5057699;28;999;-29
2021/05/29 01:50:16;;;;;;;;;;;;;;;27.24;38.38;100290.00;5057582;28;883;-29
2021/05/29 01:52:45;;;;;;;;;;;;;;;27.28;38.27;100300.44;5057333;28;1910;-30
2021/05/29 01:55:11;;;;;;;;;;;;;;;27.22;38.55;100305.59;5057827;28;804;-29
2021/05/29 01:57:36;;;;;;;;;;;;;;;27.25;38.22;100298.94;5057849;28;780;-29
2021/05/29 02:00:02;;;;;;;;;;;;;;;27.23;38.50;100299.13;5057554;28;784;-29
2021/05/29 02:02:27;;;;;;;;;;;;;;;27.25;38.24;100305.19;5057616;28;936;-28
2021/05/29 02:04:52;;;;;;;;;;;;;;;27.30;38.58;100309.16;5057606;28;772;-29
2021/05/29 02:07:17;;;;;;;;;;;;;;;27.33;38.42;100292.56;5056753;28;760;-28
2021/05/29 02:09:43;;;;;;;;;;;;;;;27.31;38.30;100306.25;5057913;28;729;-28
2021/05/29 02:12:08;;;;;;;;;;;;;;;27.36;38.29;100309.22;5057343;28;1148;-28
2021/05/29 02:14:33;;;;;;;;;;;;;;;27.41;38.22;100303.22;5056731;28;1906;-28
2021/05/29 02:16:59;;;;;;;;;;;;;;;27.37;38.39;100312.75;5056993;28;962;-28
2021/05/29 02:19:24;;;;;;;;;;;;;;;27.35;38.51;100320.22;5057172;28;863;-28
2021/05/29 02:21:49;;;;;;;;;;;;;;;27.39;38.60;100310.69;5057059;28;813;-28
2021/05/29 02:24:15;;;;;;;;;;;;;;;27.36;38.36;100311.09;5057312;28;807;-28
2021/05/29 02:26:40;;;;;;;;;;;;;;;27.38;38.36;100309.00;5057328;28;780;-28
2021/05/29 02:29:06;;;;;;;;;;;;;;;27.34;38.50;100305.84;5056745;28;767;-28
2021/05/29 02:31:31;;;;;;;;;;;;;;;27.39;38.50;100311.50;5057233;28;882;-28
2021/05/29 02:33:56;;;;;;;;;;;;;;;27.36;38.26;100311.91;5056752;28;1965;-28
2021/05/29 02:36:21;;;;;;;;;;;;;;;27.39;38.47;100303.41;5056590;28;851;-28
2021/05/29 02:38:47;;;;;;;;;;;;;;;27.43;38.30;100311.13;5057165;28;764;-28
2021/05/29 02:41:12;;;;;;;;;;;;;;;27.50;38.02;100309.31;5056882;28;752;-29
2021/05/29 02:43:38;;;;;;;;;;;;;;;27.50;38.29;100312.88;5056612;28;740;-29
2021/05/29 02:46:03;;;;;;;;;;;;;;;27.49;38.10;100311.19;5038802;28;1018;-29
2021/05/29 02:48:29;;;;;;;;;;;;;;;27.52;38.12;100315.38;5056216;28;980;-28
2021/05/29 02:50:54;;;;;;;;;;;;;;;27.53;38.17;100322.44;5056527;28;824;-29
2021/05/29 02:53:19;;;;;;;;;;;;;;;27.55;38.11;100319.53;5056664;28;1898;-28
2021/05/29 02:55:44;;;;;;;;;;;;;;;27.53;38.07;100321.63;5056810;28;819;-29
2021/05/29 02:58:10;;;;;;;;;;;;;;;27.47;38.20;100321.38;5057019;28;726;-27
2021/05/29 03:00:39;;;;;;;;;;;;;;;27.46;38.25;100325.06;5056178;28;895;-27
2021/05/29 03:03:07;;;;;;;;;;;;;;;27.45;37.98;100318.00;5055649;28;1154;-26
2021/05/29 03:05:32;;;;;;;;;;;;;;;26.24;40.13;100321.06;5056828;28;792;-26
2021/05/29 03:07:57;;;;;;;;;;;;;;;25.70;41.19;100330.25;5056006;28;876;-27
2021/05/29 03:10:23;;;;;;;;;;;;;;;24.75;43.37;100334.81;5056405;28;787;-29
2021/05/29 03:12:48;;;;;;;;;;;;;;;24.80;43.34;100324.38;5056156;28;1993;-27
2021/05/29 03:15:15;;;;;;;;;;;;;;;24.63;43.90;100329.00;5056273;28;806;-27
2021/05/29 03:17:40;;;;;;;;;;;;;;;24.82;43.50;100335.75;5055921;28;1035;-29
2021/05/29 03:20:05;;;;;;;;;;;;;;;24.82;43.19;100349.22;5056513;28;834;-29
2021/05/29 03:22:31;;;;;;;;;;;;;;;23.77;46.18;100335.81;5055515;28;840;-29
2021/05/29 03:24:56;;;;;;;;;;;;;;;23.99;45.47;100336.09;5056331;28;768;-29
2021/05/29 03:27:21;;;;;;;;;;;;;;;23.85;45.89;100338.50;5056724;28;859;-28
2021/05/29 03:29:46;;;;;;;;;;;;;;;23.89;46.05;100346.22;5055797;28;776;-29
2021/05/29 03:32:12;;;;;;;;;;;;;;;24.02;45.83;100343.81;5055654;28;1004;-28
2021/05/29 03:34:37;;;;;;;;;;;;;;;24.23;45.22;100349.66;5056162;28;1905;-28
2021/05/29 03:37:03;;;;;;;;;;;;;;;24.25;45.25;100356.56;5055691;28;870;-28
2021/05/29 03:39:28;;;;;;;;;;;;;;;24.00;45.65;100347.69;5056332;28;821;-28
2021/05/29 03:41:53;;;;;;;;;;;;;;;23.86;45.95;100355.44;5056198;28;788;-28
2021/05/29 03:44:19;;;;;;;;;;;;;;;23.63;46.65;100352.59;5055668;28;977;-27
2021/05/29 03:46:44;;;;;;;;;;;;;;;23.66;46.66;100355.78;5055860;28;944;-28
2021/05/29 03:49:09;;;;;;;;;;;;;;;24.08;45.58;100353.03;5056218;28;1283;-28
2021/05/29 03:51:34;;;;;;;;;;;;;;;23.71;46.31;100356.13;5055178;28;1331;-28
2021/05/29 03:54:00;;;;;;;;;;;;;;;23.78;46.29;100345.53;5056163;28;1886;-28
2021/05/29 03:56:25;;;;;;;;;;;;;;;23.64;46.48;100347.06;5055891;28;795;-28
2021/05/29 03:58:50;;;;;;;;;;;;;;;23.43;47.32;100345.75;5055379;28;827;-26
2021/05/29 04:01:15;;;;;;;;;;;;;;;24.43;44.88;100348.25;5058265;28;790;-27
2021/05/29 04:03:41;;;;;;;;;;;;;;;24.99;43.25;100361.78;5059290;28;995;-27
2021/05/29 04:06:06;;;;;;;;;;;;;;;25.15;43.02;100356.28;5059037;28;820;-27
2021/05/29 04:08:31;;;;;;;;;;;;;;;25.46;42.94;100354.50;5059558;28;765;-29
2021/05/29 04:10:57;;;;;;;;;;;;;;;25.56;43.02;100359.66;5058898;28;838;-28
2021/05/29 04:13:22;;;;;;;;;;;;;;;25.65;42.89;100365.84;5059213;28;1918;-28
2021/05/29 04:15:47;;;;;;;;;;;;;;;25.77;42.36;100369.78;5059718;28;866;-28
2021/05/29 04:18:13;;;;;;;;;;;;;;;25.86;42.24;100375.09;5058551;28;844;-28
2021/05/29 04:20:38;;;;;;;;;;;;;;;25.94;41.75;100372.31;5059336;28;756;-28
2021/05/29 04:23:03;;;;;;;;;;;;;;;25.98;41.82;100375.44;5059718;28;835;-27
2021/05/29 04:25:30;;;;;;;;;;;;;;;26.06;41.58;100369.97;5058474;28;851;-28
2021/05/29 04:27:55;;;;;;;;;;;;;;;26.13;41.25;100370.06;5058406;28;810;-28
2021/05/29 04:30:22;;;;;;;;;;;;;;;26.20;41.24;100383.63;5058188;28;842;-28
2021/05/29 04:32:47;;;;;;;;;;;;;;;26.20;41.30;100386.34;5058846;28;1905;-28
2021/05/29 04:35:12;;;;;;;;;;;;;;;26.27;41.13;100382.72;5059067;28;775;-30
2021/05/29 04:37:40;;;;;;;;;;;;;;;26.32;40.81;100390.25;5059084;28;793;-30
2021/05/29 04:40:09;;;;;;;;;;;;;;;26.38;40.60;100381.44;5059192;28;848;-30
2021/05/29 04:42:34;;;;;;;;;;;;;;;26.42;41.06;100381.91;5058987;28;854;-31
2021/05/29 04:44:59;;;;;;;;;;;;;;;26.45;40.84;100386.94;5059044;28;755;-31
2021/05/29 04:47:25;;;;;;;;;;;;;;;26.43;41.01;100382.72;5058777;28;952;-30
2021/05/29 04:49:50;;;;;;;;;;;;;;;26.50;40.92;100392.59;5058467;28;808;-31
2021/05/29 04:52:15;;;;;;;;;;;;;;;26.63;40.91;100397.31;5058956;28;762;-29
2021/05/29 04:54:41;;;;;;;;;;;;;;;26.63;40.88;100396.47;5058905;28;1963;-29
2021/05/29 04:57:06;;;;;;;;;;;;;;;26.71;40.81;100392.84;5058442;28;528;-31
2021/05/29 04:59:31;;;;;;;;;;;;;;;26.70;40.66;100396.56;5058745;28;827;-31
2021/05/29 05:01:56;;;;;;;;;;;;;;;26.75;40.97;100402.22;5058514;28;912;-30
2021/05/29 05:04:22;;;;;;;;;;;;;;;26.84;40.76;100393.00;5058444;28;783;-29
2021/05/29 05:06:47;;;;;;;;;;;;;;;26.85;40.46;100391.13;5058827;28;728;-28
2021/05/29 05:09:12;;;;;;;;;;;;;;;26.99;40.43;100384.84;5058429;28;824;-30
2021/05/29 05:11:38;;;;;;;;;;;;;;;27.04;40.44;100399.69;5057428;28;1088;-31
2021/05/29 05:14:03;;;;;;;;;;;;;;;26.96;40.03;100404.13;5057144;28;1914;-29
2021/05/29 05:16:28;;;;;;;;;;;;;;;26.93;40.38;100409.06;5058950;28;740;-31
2021/05/29 05:18:54;;;;;;;;;;;;;;;26.93;40.41;100412.63;5057686;28;959;-30
2021/05/29 05:21:20;;;;;;;;;;;;;;;26.97;40.81;100415.78;5057896;28;804;-30
2021/05/29 05:23:48;;;;;;;;;;;;;;;27.04;40.33;100424.81;5058138;28;819;-30
2021/05/29 05:26:13;;;;;;;;;;;;;;;27.12;40.39;100421.16;5058181;28;753;-31
2021/05/29 05:28:38;;;;;;;;;;;;;;;27.23;40.34;100427.91;5058101;28;907;-32
2021/05/29 05:31:04;;;;;;;;;;;;;;;27.25;40.45;100439.38;5058085;28;902;-30
2021/05/29 05:33:30;;;;;;;;;;;;;;;27.26;40.35;100435.63;5057862;28;1909;-31
2021/05/29 05:35:55;;;;;;;;;;;;;;;27.28;40.51;100430.88;5057757;28;827;-28
2021/05/29 05:38:20;;;;;;;;;;;;;;;27.32;40.23;100434.88;5058172;28;780;-32
2021/05/29 05:40:46;;;;;;;;;;;;;;;27.32;40.18;100442.13;5058338;28;811;-31
2021/05/29 05:43:11;;;;;;;;;;;;;;;27.34;40.23;100443.59;5057634;28;837;-31
2021/05/29 05:45:36;;;;;;;;;;;;;;;27.39;40.34;100446.56;5058093;28;839;-30
2021/05/29 05:48:02;;;;;;;;;;;;;;;27.36;40.11;100448.84;5057646;28;952;-30
2021/05/29 05:50:27;;;;;;;;;;;;;;;27.37;40.22;100453.19;5057185;28;788;-31
2021/05/29 05:52:52;;;;;;;;;;;;;;;27.39;39.82;100459.25;5057582;28;1960;-31
2021/05/29 05:55:18;;;;;;;;;;;;;;;27.40;40.08;100455.50;5057597;28;748;-30
2021/05/29 05:57:43;;;;;;;;;;;;;;;27.39;40.11;100462.78;5057177;28;808;-31
2021/05/29 06:00:09;;;;;;;;;;;;;;;27.38;40.30;100455.72;5057910;28;807;-29
2021/05/29 06:02:34;;;;;;;;;;;;;;;27.42;39.80;100461.56;5056072;28;932;-29
2021/05/29 06:05:00;;;;;;;;;;;;;;;27.41;40.32;100465.28;5057234;28;763;-29
2021/05/29 06:07:25;;;;;;;;;;;;;;;27.36;40.34;100468.56;5057164;28;863;-29
2021/05/29 06:09:50;;;;;;;;;;;;;;;27.51;40.22;100470.38;5056759;28;795;-32
2021/05/29 06:12:16;;;;;;;;;;;;;;;27.53;40.26;100468.31;5057277;28;1170;-30
2021/05/29 06:20:12;;;;;;;;;;;;;;;27.55;40.08;100452.75;5056740;28;642;-31
2021/05/29 06:22:39;;;;;;;;;;;;;;;27.65;40.17;100454.28;5057093;28;831;-32
2021/05/29 06:25:05;;;;;;;;;;;;;;;27.70;39.91;100458.13;5056575;28;911;-29
2021/05/29 06:27:31;;;;;;;;;;;;;;;27.72;39.54;100456.06;5056738;28;776;-29
2021/05/29 06:29:56;;;;;;;;;;;;;;;27.68;39.93;100460.16;5057001;28;775;-30
2021/05/29 06:32:21;;;;;;;;;;;;;;;27.40;39.39;100466.31;5056680;28;963;-29
2021/05/29 06:34:46;;;;;;;;;;;;;;;27.55;39.35;100455.47;5056535;28;1994;-30
2021/05/29 06:37:12;;;;;;;;;;;;;;;27.58;39.99;100459.63;5056938;28;823;-29
2021/05/29 06:39:38;;;;;;;;;;;;;;;27.58;40.18;100471.28;5056976;28;832;-28
2021/05/29 06:42:03;;;;;;;;;;;;;;;27.57;40.20;100469.63;5056448;28;802;-31
2021/05/29 06:44:28;;;;;;;;;;;;;;;27.62;40.11;100477.13;5056656;28;840;-30
2021/05/29 06:46:54;;;;;;;;;;;;;;;27.65;39.88;100471.34;5056517;28;936;-29
2021/05/29 06:49:20;;;;;;;;;;;;;;;27.60;40.12;100481.88;5056222;28;815;-31
2021/05/29 06:51:59;;;;;;;;;;;;;;;27.59;40.20;100489.16;5056434;28;838;-31
2021/05/29 06:59:51;;;;;;;;;;;;;;;27.59;39.99;100474.81;5056305;28;594;-32
2021/05/29 07:02:16;;;;;;;;;;;;;;;27.61;40.12;100480.88;5056221;28;920;-30
2021/05/29 07:04:45;;;;;;;;;;;;;;;27.64;39.88;100477.78;5056387;28;787;-32
2021/05/29 07:07:10;;;;;;;;;;;;;;;27.69;40.15;100485.34;5056602;28;732;-30
2021/05/29 07:09:35;;;;;;;;;;;;;;;27.76;39.94;100472.72;5056091;28;843;-31
2021/05/29 07:12:01;;;;;;;;;;;;;;;27.79;39.66;100474.19;5055626;28;1065;-32
2021/05/29 07:14:26;;;;;;;;;;;;;;;27.77;39.91;100465.44;5056306;28;1969;-29
2021/05/29 07:16:51;;;;;;;;;;;;;;;27.76;39.72;100480.81;5055808;28;995;-29
2021/05/29 07:19:17;;;;;;;;;;;;;;;27.78;39.94;100477.94;5055874;28;781;-31
2021/05/29 07:21:43;;;;;;;;;;;;;;;27.71;40.03;100475.19;5056344;28;1420;-30
2021/05/29 07:24:08;;;;;;;;;;;;;;;27.79;39.82;100480.44;5056033;28;860;-30
2021/05/29 07:26:33;;;;;;;;;;;;;;;27.81;39.80;100483.78;5055940;28;784;-30
2021/05/29 07:28:59;;;;;;;;;;;;;;;27.84;39.83;100477.97;5056244;28;810;-29
2021/05/29 07:31:24;;;;;;;;;;;;;;;27.84;39.95;100480.69;5056381;28;815;-29
2021/05/29 07:33:52;;;;;;;;;;;;;;;27.82;39.85;100473.81;5055493;28;1955;-29
2021/05/29 07:36:18;;;;;;;;;;;;;;;27.77;40.05;100477.09;5058320;28;847;-30
2021/05/29 07:38:43;;;;;;;;;;;;;;;27.86;39.72;100470.50;5060227;28;744;-31
2021/05/29 07:41:08;;;;;;;;;;;;;;;27.92;39.81;100477.03;5059938;28;769;-30
2021/05/29 07:43:34;;;;;;;;;;;;;;;27.83;40.02;100478.16;5060502;28;772;-30
2021/05/29 07:45:59;;;;;;;;;;;;;;;27.89;39.62;100477.41;5059675;28;860;-32
2021/05/29 07:48:24;;;;;;;;;;;;;;;27.97;39.43;100477.28;5059392;28;991;-30
2021/05/29 07:51:03;;;;;;;;;;;;;;;28.00;39.60;100476.03;5060217;28;803;-31
2021/05/29 07:53:35;;;;;;;;;;;;;;;27.89;39.88;100482.81;5060101;28;1906;-31
2021/05/29 07:56:01;;;;;;;;;;;;;;;27.93;39.64;100475.13;5059769;28;806;-31
2021/05/29 07:58:26;;;;;;;;;;;;;;;27.84;39.65;100482.56;5060020;28;802;-31
2021/05/29 08:00:52;;;;;;;;;;;;;;;27.83;40.00;100483.56;5060025;28;792;-30
2021/05/29 08:03:26;;;;;;;;;;;;;;;27.83;40.12;100484.41;5058925;28;1026;-29
2021/05/29 08:05:52;;;;;;;;;;;;;;;27.87;39.96;100495.69;5059788;28;874;-32
2021/05/29 08:08:18;;;;;;;;;;;;;;;27.82;39.79;100492.72;5059690;28;855;-30
2021/05/29 08:10:46;;;;;;;;;;;;;;;27.85;39.67;100501.28;5059232;28;874;-30
2021/05/29 08:13:11;;;;;;;;;;;;;;;27.83;39.84;100499.78;5059550;28;1987;-31
2021/05/29 08:15:37;;;;;;;;;;;;;;;27.91;39.37;100502.38;5059494;28;844;-30
2021/05/29 08:18:02;;;;;;;;;;;;;;;27.92;39.49;100500.50;5058627;28;1033;-31
2021/05/29 08:20:27;;;;;;;;;;;;;;;27.95;39.37;100502.81;5059641;28;735;-32
2021/05/29 08:22:53;;;;;;;;;;;;;;;27.92;39.51;100519.44;5059406;28;906;-30
2021/05/29 08:25:18;;;;;;;;;;;;;;;27.97;39.64;100516.97;5059154;28;752;-30
2021/05/29 08:27:44;;;;;;;;;;;;;;;27.98;39.44;100510.53;5059141;28;806;-32
2021/05/29 08:30:10;;;;;;;;;;;;;;;27.95;39.42;100519.88;5059298;28;780;-31
2021/05/29 08:32:35;;;;;;;;;;;;;;;27.91;39.55;100521.28;5058560;28;960;-31
2021/05/29 08:35:00;;;;;;;;;;;;;;;27.96;39.41;100512.63;5059072;28;1903;-31
2021/05/29 08:37:26;;;;;;;;;;;;;;;27.98;39.54;100514.09;5058940;28;914;-30
2021/05/29 08:39:51;;;;;;;;;;;;;;;28.06;39.22;100512.28;5058913;28;764;-31
2021/05/29 08:42:16;;;;;;;;;;;;;;;28.11;39.06;100520.66;5058985;28;864;-31
2021/05/29 08:44:41;;;;;;;;;;;;;;;28.07;39.44;100516.66;5059031;28;838;-30
2021/05/29 08:47:07;;;;;;;;;;;;;;;28.08;39.13;100519.16;5057950;28;939;-32
2021/05/29 08:49:32;;;;;;;;;;;;;;;28.10;39.00;100513.56;5058376;28;779;-31
2021/05/29 08:52:00;;;;;;;;;;;;;;;28.09;39.12;100525.41;5058740;28;930;-31
2021/05/29 08:54:27;;;;;;;;;;;;;;;28.09;39.10;100533.53;5058205;28;1945;-31
2021/05/29 08:56:53;;;;;;;;;;;;;;;28.11;39.13;100534.16;5058387;28;860;-31
2021/05/29 08:59:18;;;;;;;;;;;;;;;28.06;37.92;100539.31;5058676;28;847;-32
2021/05/29 09:01:43;;;;;;;;;;;;;;;28.08;37.88;100542.66;5058082;28;924;-31
2021/05/29 09:04:08;;;;;;;;;;;;;;;27.89;38.90;100542.28;5058537;28;515;-33
2021/05/29 09:06:34;;;;;;;;;;;;;;;27.93;38.72;100543.56;5058967;28;829;-32
2021/05/29 09:09:00;;;;;;;;;;;;;;;27.97;38.53;100541.31;5058267;28;811;-31
2021/05/29 09:11:36;;;;;;;;;;;;;;;27.95;38.83;100544.22;5058893;28;748;-31
2021/05/29 09:14:07;;;;;;;;;;;;;;;27.93;39.04;100545.41;5037849;28;1918;-32
2021/05/29 09:16:33;;;;;;;;;;;;;;;27.93;38.95;100543.56;5037961;28;820;-31
2021/05/29 09:18:58;;;;;;;;;;;;;;;27.94;38.78;100537.16;5057902;28;883;-30
2021/05/29 09:21:33;;;;;;;;;;;;;;;27.94;38.50;100539.84;5058553;28;804;-31
2021/05/29 09:23:59;;;;;;;;;;;;;;;27.90;38.86;100537.69;5057619;28;806;-32
2021/05/29 09:26:42;;;;;;;;;;;;;;;27.85;38.70;100536.44;5058432;28;760;-31
2021/05/29 09:29:16;;;;;;;;;;;;;;;27.87;39.03;100545.19;5058149;28;1159;-32
2021/05/29 09:32:02;;;;;;;;;;;;;;;27.83;39.14;100551.16;5057210;28;1003;-32
2021/05/29 09:34:45;;;;;;;;;;;;;;;27.83;39.18;100534.94;5057379;28;2391;-32
2021/05/29 09:37:10;;;;;;;;;;;;;;;27.83;39.19;100537.63;5057891;28;866;-31
2021/05/29 09:39:37;;;;;;;;;;;;;;;27.85;39.28;100539.13;5057092;28;833;-31
2021/05/29 09:42:02;;;;;;;;;;;;;;;27.76;39.28;100526.75;5058068;28;816;-33
2021/05/29 09:44:27;;;;;;;;;;;;;;;27.79;38.85;100534.50;5057731;28;784;-32
2021/05/29 09:46:54;;;;;;;;;;;;;;;27.83;39.17;100537.63;5057201;28;968;-31
2021/05/29 09:49:19;;;;;;;;;;;;;;;27.85;39.16;100531.03;5057828;28;798;-32
2021/05/29 09:51:44;;;;;;;;;;;;;;;27.84;39.23;100526.63;5057394;28;815;-32
2021/05/29 09:54:10;;;;;;;;;;;;;;;27.87;39.00;100528.97;5057149;28;1897;-31
2021/05/29 09:56:45;;;;;;;;;;;;;;;27.93;38.50;100540.84;5058050;28;744;-31
2021/05/29 09:59:15;;;;;;;;;;;;;;;27.87;39.00;100541.63;5056761;28;820;-31
2021/05/29 10:01:44;;;;;;;;;;;;;;;27.93;39.10;100530.03;5056930;28;951;-31
2021/05/29 10:04:13;;;;;;;;;;;;;;;27.92;38.79;100527.53;5056998;28;1015;-32
2021/05/29 10:06:39;;;;;;;;;;;;;;;28.02;38.91;100536.16;5057904;28;877;-30
2021/05/29 10:09:05;;;;;;;;;;;;;;;28.14;38.36;100527.53;5057212;28;732;-30
2021/05/29 10:11:30;;;;;;;;;;;;;;;28.19;38.38;100525.06;5057397;28;819;-30
2021/05/29 10:13:56;;;;;;;;;;;;;;;28.31;38.31;100525.38;5037165;28;1914;-30
2021/05/29 10:16:21;;;;;;;;;;;;;;;28.37;37.86;100524.59;5037171;28;863;-29
2021/05/29 10:18:50;;;;;;;;;;;;;;;28.39;37.93;100524.41;5054520;28;972;-31
2021/05/29 10:21:16;;;;;;;;;;;;;;;28.35;38.00;100527.50;5057274;28;804;-31
2021/05/29 10:23:41;;;;;;;;;;;;;;;28.38;38.18;100520.84;5071485;28;753;-31
2021/05/29 10:26:07;;;;;;;;;;;;;;;28.46;37.55;100528.81;5071695;28;1073;-31
2021/05/29 10:28:32;;;;;;;;;;;;;;;28.53;37.73;100525.34;5056661;28;887;-29
2021/05/29 10:30:57;;;;;;;;;;;;;;;28.53;37.77;100522.66;5057012;28;809;-29
2021/05/29 10:33:23;;;;;;;;;;;;;;;28.45;37.90;100524.47;5060261;28;1898;-30
2021/05/29 10:35:48;;;;;;;;;;;;;;;28.58;37.48;100528.28;5056685;28;841;-32
2021/05/29 10:38:14;;;;;;;;;;;;;;;28.59;37.41;100536.19;5056816;28;776;-31
2021/05/29 10:40:40;;;;;;;;;;;;;;;28.63;37.13;100535.81;5057172;28;837;-31
2021/05/29 10:43:09;;;;;;;;;;;;;;;28.60;37.40;100532.47;5057383;28;811;-30
2021/05/29 10:45:35;;;;;;;;;;;;;;;28.36;37.32;100525.66;5055853;28;848;-29
2021/05/29 10:48:13;;;;;;;;;;;;;;;28.21;37.56;100531.13;5056191;28;952;-30
2021/05/29 10:53:34;;;;;;;;;;;;;;;27.96;38.40;100521.53;5055783;28;1902;-30
2021/05/29 10:56:18;;;;;;;;;;;;;;;27.94;38.05;100529.03;5056338;28;780;-30
2021/05/29 10:58:55;;;;;;;;;;;;;;;28.00;37.42;100524.69;5056514;28;867;-30
2021/05/29 11:01:20;;;;;;;;;;;;;;;28.08;37.73;100529.13;5056197;28;753;-30
2021/05/29 11:03:46;;;;;;;;;;;;;;;28.10;37.75;100530.63;5056156;28;1007;-30
2021/05/29 11:06:30;;;;;;;;;;;;;;;28.12;37.88;100519.59;5056729;28;957;-30
2021/05/29 11:08:58;;;;;;;;;;;;;;;28.07;37.79;100530.16;5055877;28;793;-30
2021/05/29 11:11:36;;;;;;;;;;;;;;;28.05;37.65;100529.53;5056533;28;968;-30
2021/05/29 11:14:01;;;;;;;;;;;;;;;27.97;38.10;100530.50;5035815;28;1910;-30
2021/05/29 11:16:53;;;;;;;;;;;;;;;28.13;37.71;100531.28;5036352;28;834;-30
2021/05/29 11:19:19;;;;;;;;;;;;;;;28.11;37.62;100529.56;5036300;28;1237;-29
2021/05/29 11:22:03;;;;;;;;;;;;;;;28.11;37.58;100524.16;5035648;28;850;-30
2021/05/29 11:24:33;;;;;;;;;;;;;;;28.06;37.86;100534.72;5036049;28;820;-29
2021/05/29 11:26:59;;;;;;;;;;;;;;;28.08;37.70;100529.97;5036625;28;842;-30
2021/05/29 11:29:24;;;;;;;;;;;;;;;28.07;38.01;100528.31;5035908;28;768;-29
2021/05/29 11:31:49;;;;;;;;;;;;;;;28.07;38.22;100540.97;5052438;28;995;-29
2021/05/29 11:34:15;;;;;;;;;;;;;;;28.10;37.77;100536.03;5055574;28;1961;-29
2021/05/29 11:36:44;;;;;;;;;;;;;;;28.06;38.08;100529.31;5055374;28;1004;-30
2021/05/29 11:39:10;;;;;;;;;;;;;;;28.09;37.78;100517.28;5056241;28;795;-30
2021/05/29 11:41:35;;;;;;;;;;;;;;;28.16;37.76;100520.06;5055679;28;804;-29
2021/05/29 11:44:02;;;;;;;;;;;;;;;28.06;37.59;100520.41;5055484;28;771;-29
2021/05/29 11:46:27;;;;;;;;;;;;;;;27.99;38.04;100523.03;5055857;28;827;-29
2021/05/29 11:49:05;;;;;;;;;;;;;;;28.13;37.82;100525.88;5055840;28;975;-28
2021/05/29 11:51:36;;;;;;;;;;;;;;;28.05;37.79;100532.22;5055452;28;1269;-29
2021/05/29 11:54:12;;;;;;;;;;;;;;;27.99;37.82;100523.84;5056069;28;1906;-29
2021/05/29 11:56:39;;;;;;;;;;;;;;;28.01;37.85;100523.66;5052625;28;1084;-29
2021/05/29 11:59:06;;;;;;;;;;;;;;;27.96;37.53;100537.75;5054712;28;817;-29
2021/05/29 12:01:33;;;;;;;;;;;;;;;27.94;37.70;100518.22;5055603;28;1184;-28
2021/05/29 12:03:59;;;;;;;;;;;;;;;27.98;37.88;100530.31;5054539;28;896;-29
2021/05/29 12:06:35;;;;;;;;;;;;;;;27.98;37.86;100533.00;5055363;28;1029;-29
2021/05/29 12:09:01;;;;;;;;;;;;;;;27.94;37.84;100529.03;5055148;28;1025;-29
2021/05/29 12:11:30;;;;;;;;;;;;;;;28.12;37.80;100525.00;5056137;28;797;-29
2021/05/29 12:13:56;;;;;;;;;;;;;;;28.05;37.80;100527.66;5046035;28;1921;-29
2021/05/29 12:16:28;;;;;;;;;;;;;;;28.15;37.41;100529.19;5055493;28;792;-29
2021/05/29 12:18:54;;;;;;;;;;;;;;;28.10;37.28;100524.38;5054780;28;1017;-29
2021/05/29 12:21:19;;;;;;;;;;;;;;;28.07;37.54;100524.75;5056630;28;779;-28
2021/05/29 12:23:57;;;;;;;;;;;;;;;28.07;37.47;100514.78;5058989;28;776;-29
2021/05/29 12:26:22;;;;;;;;;;;;;;;28.05;37.75;100519.53;5041332;28;772;-29
2021/05/29 12:28:48;;;;;;;;;;;;;;;28.06;37.84;100512.28;5058591;28;806;-28
2021/05/29 12:31:13;;;;;;;;;;;;;;;28.10;37.67;100508.13;5058798;28;824;-29
2021/05/29 12:33:39;;;;;;;;;;;;;;;28.06;37.41;100504.16;5058210;28;1914;-29
2021/05/29 12:36:05;;;;;;;;;;;;;;;28.09;37.43;100501.88;5059170;28;800;-29
2021/05/29 12:38:33;;;;;;;;;;;;;;;28.02;37.65;100502.88;5058375;28;832;-28
2021/05/29 12:41:11;;;;;;;;;;;;;;;28.09;37.58;100510.00;5058357;28;748;-29
2021/05/29 12:43:40;;;;;;;;;;;;;;;28.02;37.59;100508.28;5058756;28;843;-29
2021/05/29 12:46:05;;;;;;;;;;;;;;;28.01;37.27;100507.44;5059081;28;732;-29
2021/05/29 12:48:31;;;;;;;;;;;;;;;27.96;37.71;100507.22;5057974;28;1072;-29
2021/05/29 12:50:59;;;;;;;;;;;;;;;28.03;37.63;100505.38;5058593;28;791;-29
2021/05/29 12:53:29;;;;;;;;;;;;;;;28.07;37.45;100511.25;5058265;28;1955;-29
2021/05/29 12:56:06;;;;;;;;;;;;;;;28.03;37.60;100507.28;5058921;28;828;-29
2021/05/29 12:58:31;;;;;;;;;;;;;;;28.02;38.20;100510.97;5058029;28;823;-29
2021/05/29 13:01:28;;;;;;;;;;;;;;;28.05;37.78;100506.03;5058754;28;811;-29
2021/05/29 13:09:46;;;;;;;;;;;;;;;28.11;37.53;100499.84;5058611;28;578;-28
2021/05/29 13:12:12;;;;;;;;;;;;;;;28.15;37.86;100494.88;5058525;28;1251;-28